< Typhoon 199220 1992 Season Typhoon 199222 >
Typhoon 199221 (WARD)
General InformationTrack Information on Google MapsDetailed Wind InformationList of All Images || Disaster Info.ResourceGoogle EarthGE AnimationAtom FeedGeoJSON
Detalied Best Track (Time Zone = UTC)
Year Month Day Hour Lat. Long. Pressure (hPa) Wind (kt) Class Image Chart
1992 9 26 18 14.0 181.0 1002 0 7 Image Chart
1992 9 27 00 15.3 179.7 1000 35 3 Image Chart
1992 9 27 06 15.8 179.1 1000 35 3 Image Chart
1992 9 27 12 16.1 178.5 996 40 3 Image Chart
1992 9 27 18 16.5 177.9 994 40 3 Image Chart
1992 9 28 00 16.7 177.1 990 45 3 Image Chart
1992 9 28 06 16.8 176.6 985 50 4 Image Chart
1992 9 28 12 17.0 176.4 985 50 4 Image Chart
1992 9 28 18 17.2 176.8 980 55 4 Image Chart
1992 9 29 00 17.5 177.5 970 65 5 Image Chart
1992 9 29 06 18.6 177.8 965 70 5 Image Chart
1992 9 29 12 19.4 177.9 965 70 5 Image Chart
1992 9 29 18 20.7 177.6 965 70 5 Image Chart
1992 9 30 00 22.4 176.5 970 65 5 Image Chart
1992 9 30 06 23.7 175.8 975 60 4 Image Chart
1992 9 30 12 24.6 175.2 975 60 4 Image Chart
1992 9 30 18 25.2 174.0 975 60 4 Image Chart
1992 10 1 00 25.8 171.9 970 65 5 Image Chart
1992 10 1 06 25.9 170.3 970 65 5 Image Chart
1992 10 1 12 25.6 168.6 965 70 5 Image Chart
1992 10 1 18 25.3 167.1 955 75 5 Image Chart
1992 10 2 00 24.9 165.8 950 80 5 Image Chart
1992 10 2 06 24.5 164.3 950 80 5 Image Chart
1992 10 2 12 24.1 163.0 950 80 5 Image Chart
1992 10 2 18 23.8 161.8 945 85 5 Image Chart
1992 10 3 00 23.7 161.0 945 85 5 Image Chart
1992 10 3 06 23.9 160.2 950 80 5 Image Chart
1992 10 3 12 24.3 159.6 950 80 5 Image Chart
1992 10 3 18 24.8 159.2 955 75 5 Image Chart
1992 10 4 00 25.4 159.1 955 75 5 Image Chart
1992 10 4 06 26.3 159.1 960 75 5 Image Chart
1992 10 4 12 27.1 159.2 965 70 5 Image Chart
1992 10 4 18 28.4 159.3 965 70 5 Image Chart
1992 10 5 00 29.4 158.8 965 70 5 Image Chart
1992 10 5 06 30.6 158.7 965 70 5 Image Chart
1992 10 5 12 31.8 158.9 965 70 5 Image Chart
1992 10 5 18 33.1 159.1 970 65 5 Image Chart
1992 10 6 00 34.6 158.9 975 60 4 Image Chart
1992 10 6 06 36.1 159.7 980 55 4 Image Chart
1992 10 6 12 38.1 161.3 980 55 4 Image Chart
1992 10 6 18 40.6 164.0 985 50 4 Image Chart
1992 10 7 00 43.0 167.0 992 0 6 Image Chart
1992 10 7 06 45.5 172.8 996 0 6 Image Chart
1992 10 7 12 47.9 179.0 1000 0 6 Image Chart
1992 10 7 18 49.0 187.0 1002 0 6 Image Chart
Japan Meteorological Agency Best Track Data | Correction Date : 2013-11-22
< Typhoon 199220 1992 Season Typhoon 199222 >

Help